Terminal Aerodrome Forecast
Issued by NWS

Home | Current Version | Previous Version | Text Only | Print | Product List | Glossary On
Versions: 1 2 3 4 5 6 7 8 9 10 11 12 13 14 15 16 17 18 19 20 21 22 23 24 25 26 27 28
697
FTUS45 KGGW 260824 AAA
TAFGDV
TAF AMD
KGDV 260824Z 2608/2706 04004KT 2SM BR OVC002
     FM261000 VRB03KT 1/2SM FG OVC001
     FM261300 23008KT 2SM BR SCT016 OVC040
     FM261800 26014KT P6SM SCT022 BKN025
     FM270000 32008KT 3SM BR SCT035 BKN040=

USA.gov is the U.S. government's official web portal to all federal, state and local government web resources and services.